Flight Track Log - Related Links

Times and Time Zones

All times are in EDT time to prevent confusion due to time zone crossing. See the N87LP flight status page for this flight to view local times or setup timezone preferences in your user account.

Time Position Orientation Groundspeed Altitude Reporting Facility
EDT Latitude Longitude Course Direction KTS MPH feet Rate Location/Type
Thu 01:31:00 PM 30.2152 -84.1937 144° Southeast  Level Estimated
Thu 01:32:00 PM 30.1794 -84.1615 142° Southeast  Level FlightAware Approximate
Thu 01:33:00 PM 30.1430 -84.1302 144° Southeast  Level Estimated
Thu 01:34:00 PM 30.1063 -84.0995 144° Southeast  Level FlightAware Approximate
Thu 01:35:00 PM 30.0695 -84.0689 144° Southeast  Level FlightAware Approximate
Thu 01:36:00 PM 30.0327 -84.0383 144° Southeast  Level FlightAware Approximate
Thu 01:37:00 PM 29.9959 -84.0077 144° Southeast  Level FlightAware Approximate
Thu 01:37:40 PM 30.1003 -84.0833 154° Southeast 164 189 7,000  Level Jacksonville Center
Thu 01:38:00 PM 29.9596 -83.9764 152° Southeast  Level Estimated
Thu 01:38:40 PM 30.0650 -84.0542 144° Southeast 164 189 7,000  Level Jacksonville Center
Thu 01:39:00 PM 29.9194 -83.9521 152° Southeast  Level FlightAware Approximate
Thu 01:39:40 PM 30.0256 -84.0322 154° Southeast 182 209 7,000  Level Jacksonville Center
Thu 01:40:00 PM 29.8793 -83.9278 152° Southeast  Level FlightAware Approximate
Thu 01:40:40 PM 29.9881 -84.0053 148° Southeast 187 215 7,000  Level Jacksonville Center
Thu 01:41:00 PM 29.8431 -83.8964 139° Southeast  Level Estimated
Thu 01:41:40 PM 29.9486 -83.9761 147° Southeast 176 203 7,000  Level Jacksonville Center
Thu 01:42:00 PM 29.8069 -83.8649 154° Southeast  Level Estimated
Thu 01:42:40 PM 29.9092 -83.9517 152° Southeast 171 197 7,000  Level Jacksonville Center
Thu 01:43:40 PM 29.8697 -83.9272 152° Southeast 171 197 7,000 -50 Level Jacksonville Center
Thu 01:44:40 PM 29.8283 -83.9006 151° Southeast 171 197 6,900  Descending Jacksonville Center
Thu 01:45:40 PM 29.7889 -83.8761 152° Southeast 171 197 7,000 50 Climbing Jacksonville Center
Thu 01:46:40 PM 29.7494 -83.8494 150° Southeast 166 191 7,000  Level Jacksonville Center
Thu 01:47:40 PM 29.7097 -83.8253 152° Southeast 166 191 7,000  Level Jacksonville Center
Thu 01:48:40 PM 29.6703 -83.7986 150° Southeast 166 191 7,000  Level Jacksonville Center
Thu 01:49:40 PM 29.6308 -83.7742 152° Southeast 166 191 7,000  Level Jacksonville Center
Thu 01:50:40 PM 29.5956 -83.7500 149° Southeast 166 191 7,000  Level Jacksonville Center
Thu 01:51:40 PM 29.5561 -83.7258 152° Southeast 166 191 7,000  Level Jacksonville Center
Thu 01:52:40 PM 29.5186 -83.7017 151° Southeast 166 191 7,000  Level Jacksonville Center
Thu 01:53:40 PM 29.4792 -83.6750 150° Southeast 166 191 7,000  Level Jacksonville Center
Thu 01:54:40 PM 29.4375 -83.6486 151° Southeast 166 191 7,000  Level Jacksonville Center
Thu 01:55:40 PM 29.4000 -83.6219 148° Southeast 166 191 7,000  Level Jacksonville Center
Thu 01:56:40 PM 29.3522 -83.5978 156° South 166 191 7,000  Level Jacksonville Center
Thu 01:57:40 PM 29.3169 -83.5714 147° Southeast 166 191 7,000  Level Jacksonville Center
Thu 01:58:40 PM 29.2775 -83.5450 150° Southeast 166 191 7,000  Level Jacksonville Center
Thu 01:59:40 PM 29.2358 -83.5208 153° Southeast 166 191 7,000  Level Jacksonville Center
Thu 02:00:40 PM 29.1961 -83.4944 150° Southeast 166 191 7,000  Level Jacksonville Center
Thu 02:01:40 PM 29.1567 -83.4681 150° Southeast 166 191 7,000  Level Jacksonville Center
Thu 02:02:40 PM 29.1108 -83.4417 153° Southeast 166 191 7,000  Level Jacksonville Center
Thu 02:03:40 PM 29.0756 -83.4153 147° Southeast 180 207 7,000  Level Jacksonville Center
Thu 02:04:40 PM 29.0358 -83.3914 152° Southeast 180 207 7,000  Level Jacksonville Center
Thu 02:05:40 PM 28.9900 -83.3625 151° Southeast 174 200 7,000  Level Jacksonville Center
Thu 02:06:40 PM 28.9567 -83.3411 151° Southeast 169 194 7,000 -50 Level Jacksonville Center
Thu 02:07:40 PM 28.9108 -83.3147 153° Southeast 169 194 6,900  Descending Jacksonville Center
Thu 02:08:40 PM 28.8756 -83.2886 147° Southeast 169 194 7,000 50 Climbing Jacksonville Center
Thu 02:09:40 PM 28.8339 -83.2647 153° Southeast 169 194 7,000 -50 Level Jacksonville Center
Thu 02:10:40 PM 28.7944 -83.2408 152° Southeast 169 194 6,900 -50 Descending Jacksonville Center
Thu 02:11:40 PM 28.7506 -83.2147 152° Southeast 169 194 6,900 50 Level Jacksonville Center
Thu 02:12:40 PM 28.7131 -83.1886 149° Southeast 169 194 7,000  Climbing Jacksonville Center
Thu 02:13:40 PM 28.6756 -83.1647 151° Southeast 164 189 6,900 -50 Descending Jacksonville Center
Thu 02:14:40 PM 28.6339 -83.1386 151° Southeast 164 189 6,900  Level Jacksonville Center
Thu 02:15:20 PM 28.6000 -83.1167 150° Southeast 164 189 6,900  Level Tampa TRACON
Thu 02:16:08 PM 28.5667 -83.1000 156° South 164 189 6,900 53 Level Tampa TRACON
Thu 02:17:14 PM 28.5333 -83.0667 139° Southeast 166 191 7,000  Climbing Tampa TRACON
Thu 02:18:20 PM 28.4833 -83.0500 164° South 164 189 6,900 -53 Descending Tampa TRACON
Thu 02:19:08 PM 28.4500 -83.0167 139° Southeast 165 190 6,900  Level Tampa TRACON
Thu 02:20:08 PM 28.4167 -83.0000 156° South 165 190 6,900  Level Tampa TRACON
Thu 02:21:14 PM 28.3667 -82.9667 150° Southeast 163 188 6,900  Level Tampa TRACON
Thu 02:21:51 PM 28.3472 -82.9572 157° South 163 188 6,900  Level Miami Center
Thu 02:22:53 PM 28.3083 -82.9314 150° Southeast 163 188 6,900  Level Miami Center
Thu 02:23:56 PM 28.2672 -82.9064 152° Southeast 163 188 6,900  Level Miami Center
Thu 02:24:58 PM 28.2289 -82.8819 151° Southeast 163 188 6,900 -290 Level Miami Center
Thu 02:26:00 PM 28.1853 -82.8467 145° Southeast 162 186 6,300 -532 Descending Miami Center
Thu 02:27:02 PM 28.1542 -82.8103 134° Southeast 162 186 5,800 -484 Descending Miami Center
Thu 02:28:04 PM 28.1192 -82.7764 140° Southeast 162 186 5,300 -636 Descending Miami Center
Thu 02:29:14 PM 28.0833 -82.7333 133° Southeast 164 189 4,400 -554 Descending Tampa TRACON
Thu 02:30:14 PM 28.0500 -82.7000 139° Southeast 159 183 4,100 -313 Descending Tampa TRACON
Thu 02:31:09 PM 28.0167 -82.6833 156° South 146 168 3,800 -500 Descending Tampa TRACON
Thu 02:32:14 PM 27.9833 -82.6333 127° Southeast 154 177 3,100 -480 Descending Tampa TRACON
Thu 02:33:14 PM 27.9667 -82.5833 111° Southeast 153 176 2,800 -104 Descending Tampa TRACON
Thu 02:34:09 PM 27.9667 -82.5500 90° East 136 157 2,900 50 Climbing Tampa TRACON
Thu 02:35:14 PM 27.9667 -82.5000 90° East 126 145 2,900 48 Level Tampa TRACON
Thu 02:36:15 PM 27.9667 -82.4667 90° East 129 148 3,000 98 Climbing Tampa TRACON

Login

Don't have an account? Register now (free) for customized features, flight alerts, and more!